createdAt,value
2022-11-15T00:02:39.691Z,100061.41
2022-11-15T00:05:26.115Z,100058.91
2022-11-15T00:08:12.755Z,100060.03
2022-11-15T00:11:02.963Z,100062.75
2022-11-15T00:13:49.282Z,100059.47
2022-11-15T00:16:35.850Z,100063.38
2022-11-15T00:19:22.353Z,100065.25
2022-11-15T00:22:08.754Z,100066.91
2022-11-15T00:24:55.170Z,100050.97
2022-11-15T00:27:43.235Z,100068.34
2022-11-15T00:30:30.565Z,100062.69
2022-11-15T00:33:16.924Z,100064.94
2022-11-15T00:36:05.422Z,100058.09
2022-11-15T00:38:51.576Z,100059.03
2022-11-15T00:41:38.001Z,100059.78
2022-11-15T00:44:25.904Z,100037.84
2022-11-15T00:47:12.210Z,100040.38
2022-11-15T00:49:58.770Z,100044.09
2022-11-15T00:52:45.803Z,100042.56
2022-11-15T00:55:32.152Z,100042.75
2022-11-15T00:58:18.679Z,100027.50
2022-11-15T01:01:11.305Z,100039.47
2022-11-15T01:04:01.285Z,100035.38
2022-11-15T01:06:48.481Z,100038.75
2022-11-15T01:09:35.094Z,100034.66
2022-11-15T01:12:21.441Z,100037.91
2022-11-15T01:15:08.599Z,100023.66
2022-11-15T01:17:56.827Z,100031.09
2022-11-15T01:20:43.963Z,100029.19
2022-11-15T01:23:30.482Z,100028.09
2022-11-15T01:26:18.111Z,100028.88
2022-11-15T01:29:05.223Z,100028.72
2022-11-15T01:31:51.555Z,100023.91
2022-11-15T01:34:39.471Z,100019.97
2022-11-15T01:37:26.055Z,100030.06
2022-11-15T01:40:12.872Z,100023.47
2022-11-15T01:42:59.114Z,100012.88
2022-11-15T01:45:48.159Z,100020.41
2022-11-15T01:48:36.650Z,100022.53
2022-11-15T01:51:28.606Z,100010.03
2022-11-15T01:54:18.167Z,100005.16
2022-11-15T01:57:09.221Z,100003.59
2022-11-15T01:59:56.471Z,99997.94
2022-11-15T02:02:42.736Z,99999.50
2022-11-15T02:05:29.197Z,99993.34
2022-11-15T02:08:21.009Z,99994.38
2022-11-15T02:11:10.336Z,99988.56
2022-11-15T02:13:57.603Z,99987.38
2022-11-15T02:16:55.103Z,99989.47
2022-11-15T02:20:23.299Z,99983.81
2022-11-15T02:23:30.774Z,99989.84
2022-11-15T02:26:36.978Z,99990.53
2022-11-15T02:29:35.542Z,99977.69
2022-11-15T02:32:33.035Z,99978.72
2022-11-15T02:35:30.601Z,99970.06
2022-11-15T02:38:24.542Z,99973.88
2022-11-15T02:41:15.199Z,99974.28
2022-11-15T02:44:05.881Z,99958.38
2022-11-15T02:47:12.859Z,99976.66
2022-11-15T02:50:04.559Z,99963.63
2022-11-15T02:52:51.551Z,99969.03
2022-11-15T02:55:40.154Z,99970.84
2022-11-15T02:58:49.842Z,99957.75
2022-11-15T03:01:48.402Z,99966.81
2022-11-15T03:04:45.891Z,99975.81
2022-11-15T03:07:38.956Z,99964.44
2022-11-15T03:10:34.268Z,99956.53
2022-11-15T03:13:27.323Z,99967.94
2022-11-15T03:16:18.468Z,99959.16
2022-11-15T03:19:08.843Z,99953.41
2022-11-15T03:21:59.726Z,99966.22
2022-11-15T03:24:49.808Z,99962.41
2022-11-15T03:27:40.359Z,99959.00
2022-11-15T03:30:26.800Z,99942.63
2022-11-15T03:33:13.706Z,99941.38
2022-11-15T03:36:00.681Z,99942.94
2022-11-15T03:38:47.703Z,99944.13
2022-11-15T03:41:42.315Z,99940.16
2022-11-15T03:44:37.660Z,99936.03
2022-11-15T03:47:30.934Z,99921.06
2022-11-15T03:50:20.514Z,99926.03
2022-11-15T03:53:07.111Z,99932.91
2022-11-15T03:55:53.441Z,99924.47
2022-11-15T03:58:41.172Z,99910.34
2022-11-15T04:01:27.580Z,99919.09
2022-11-15T04:04:14.012Z,99924.06
2022-11-15T04:07:00.532Z,99922.50
2022-11-15T04:10:06.263Z,99921.09
2022-11-15T04:12:52.479Z,99923.66
2022-11-15T04:15:40.235Z,99915.44
2022-11-15T04:18:26.740Z,99920.09
2022-11-15T04:21:30.854Z,99918.09
2022-11-15T04:24:17.418Z,99902.06
2022-11-15T04:27:04.122Z,99888.94
2022-11-15T04:29:50.592Z,99884.88
2022-11-15T04:32:38.464Z,99886.47
2022-11-15T04:35:25.027Z,99878.34
2022-11-15T04:38:12.956Z,99888.22
2022-11-15T04:40:59.576Z,99872.81
2022-11-15T04:43:45.999Z,99883.38
2022-11-15T04:46:32.630Z,99877.78
2022-11-15T04:49:20.556Z,99880.03
2022-11-15T04:52:06.884Z,99886.19
2022-11-15T04:54:53.414Z,99879.22
2022-11-15T04:57:40.234Z,99875.34
2022-11-15T05:00:26.447Z,99866.03
2022-11-15T05:03:30.980Z,99863.09
2022-11-15T05:06:18.960Z,99864.59
2022-11-15T05:09:05.558Z,99864.00
2022-11-15T05:11:52.083Z,99860.75
2022-11-15T05:14:38.527Z,99843.88
2022-11-15T05:17:25.143Z,99855.63
2022-11-15T05:20:12.361Z,99854.75
2022-11-15T05:23:00.062Z,99843.72
2022-11-15T05:25:46.588Z,99849.47
2022-11-15T05:28:33.580Z,99844.44
2022-11-15T05:31:19.970Z,99846.28
2022-11-15T05:34:07.128Z,99838.16
2022-11-15T05:36:53.755Z,99835.09
2022-11-15T05:39:41.629Z,99837.41
2022-11-15T05:42:29.787Z,99841.22
2022-11-15T05:45:16.644Z,99839.97
2022-11-15T05:48:07.630Z,99840.09
2022-11-15T05:50:54.668Z,99847.34
2022-11-15T05:53:41.329Z,99840.22
2022-11-15T05:56:29.043Z,99850.31
2022-11-15T05:59:15.442Z,99841.00
2022-11-15T06:02:01.982Z,99846.78
2022-11-15T06:04:48.818Z,99839.13
2022-11-15T06:07:35.470Z,99839.06
2022-11-15T06:10:22.027Z,99844.56
2022-11-15T06:13:09.728Z,99845.22
2022-11-15T06:15:57.480Z,99847.19
2022-11-15T06:18:44.117Z,99840.09
2022-11-15T06:21:30.436Z,99842.97
2022-11-15T06:24:16.777Z,99838.44
2022-11-15T06:27:03.392Z,99833.00
2022-11-15T06:29:51.220Z,99825.88
2022-11-15T06:32:37.705Z,99826.25
2022-11-15T06:35:24.254Z,99828.97
2022-11-15T06:38:12.498Z,99823.41
2022-11-15T06:41:03.790Z,99826.81
2022-11-15T06:43:49.986Z,99822.69
2022-11-15T06:46:37.811Z,99823.53
2022-11-15T06:49:24.603Z,99818.56
2022-11-15T06:52:11.059Z,99810.19
2022-11-15T06:54:57.705Z,99811.94
2022-11-15T06:57:49.071Z,99804.56
2022-11-15T07:00:35.331Z,99813.69
2022-11-15T07:03:23.161Z,99822.06
2022-11-15T07:06:10.685Z,99793.69
2022-11-15T07:08:57.306Z,99806.50
2022-11-15T07:11:43.787Z,99803.28
2022-11-15T07:14:30.262Z,99810.03
2022-11-15T07:17:16.741Z,99799.44
2022-11-15T07:20:05.511Z,99781.47
2022-11-15T07:22:51.923Z,99790.66
2022-11-15T07:25:38.346Z,99790.06
2022-11-15T07:28:24.824Z,99790.78
2022-11-15T07:31:11.317Z,99799.31
2022-11-15T07:33:58.491Z,99796.16
2022-11-15T07:36:46.133Z,99797.59
2022-11-15T07:39:32.542Z,99805.50
2022-11-15T07:42:36.635Z,99797.88
2022-11-15T07:45:23.913Z,99796.69
2022-11-15T07:48:10.036Z,99798.97
2022-11-15T07:50:56.505Z,99799.03
2022-11-15T07:53:45.215Z,99799.13
2022-11-15T07:56:31.391Z,99801.81
2022-11-15T07:59:17.889Z,99803.81
2022-11-15T08:02:05.068Z,99802.44
2022-11-15T08:04:51.295Z,99803.63
2022-11-15T08:07:39.034Z,99804.78
2022-11-15T08:10:26.741Z,99792.03
2022-11-15T08:13:14.282Z,99791.88
2022-11-15T08:16:01.456Z,99790.91
2022-11-15T08:18:47.693Z,99788.81
2022-11-15T08:21:34.211Z,99783.75
2022-11-15T08:24:21.377Z,99794.16
2022-11-15T08:27:15.819Z,99790.91
2022-11-15T08:30:02.822Z,99793.69
2022-11-15T08:32:49.884Z,99792.19
2022-11-15T08:35:36.200Z,99793.28
2022-11-15T08:38:22.615Z,99792.59
2022-11-15T08:41:09.246Z,99786.09
2022-11-15T08:43:56.987Z,99782.25
2022-11-15T08:46:43.147Z,99785.97
2022-11-15T08:49:29.723Z,99783.13
2022-11-15T08:52:16.757Z,99784.38
2022-11-15T08:55:03.294Z,99772.16
2022-11-15T08:57:49.775Z,99770.50
2022-11-15T09:00:37.707Z,99772.09
2022-11-15T09:03:24.157Z,99773.03
2022-11-15T09:06:11.087Z,99773.44
2022-11-15T09:08:58.149Z,99768.69
2022-11-15T09:11:44.510Z,99771.28
2022-11-15T09:14:31.366Z,99758.72
2022-11-15T09:17:24.238Z,99757.66
2022-11-15T09:20:11.724Z,99749.97
2022-11-15T09:23:01.842Z,99749.81
2022-11-15T09:25:48.697Z,99751.44
2022-11-15T09:28:36.290Z,99750.75
2022-11-15T09:31:23.171Z,99752.75
2022-11-15T09:34:10.895Z,99757.97
2022-11-15T09:36:57.092Z,99756.59
2022-11-15T09:39:43.572Z,99750.19
2022-11-15T09:42:47.679Z,99747.09
2022-11-15T09:45:39.568Z,99748.75
2022-11-15T09:48:51.856Z,99742.00
2022-11-15T09:51:48.541Z,99737.66
2022-11-15T09:57:16.490Z,99735.22
2022-11-15T10:00:01.373Z,99738.72
2022-11-15T10:02:53.821Z,99733.13
2022-11-15T10:05:25.183Z,99725.81
2022-11-15T10:07:59.720Z,99721.88
2022-11-15T10:10:33.401Z,99713.81
2022-11-15T10:13:01.347Z,99708.22
2022-11-15T10:15:29.175Z,99694.22
2022-11-15T10:18:17.462Z,99693.53
2022-11-15T10:20:50.932Z,99681.22
2022-11-15T10:23:23.085Z,99679.78
2022-11-15T10:25:55.036Z,99672.38
2022-11-15T10:28:28.093Z,99676.63
2022-11-15T10:30:57.638Z,99676.63
2022-11-15T10:33:43.383Z,99669.31
2022-11-15T10:36:23.127Z,99650.75
2022-11-15T10:38:58.183Z,99668.63
2022-11-15T10:41:39.392Z,99664.41
2022-11-15T10:44:21.311Z,99660.22
2022-11-15T10:46:51.510Z,99654.31
2022-11-15T10:49:21.119Z,99654.41
2022-11-15T10:51:51.361Z,99617.41
2022-11-15T10:54:26.091Z,99639.63
2022-11-15T10:56:56.591Z,99633.97
2022-11-15T10:59:29.079Z,99631.66
2022-11-15T11:01:57.059Z,99629.16
2022-11-15T11:04:24.936Z,99618.44
2022-11-15T11:06:54.362Z,99627.59
2022-11-15T11:09:33.139Z,99615.84
2022-11-15T11:12:02.354Z,99615.81
2022-11-15T11:14:33.080Z,99607.41
2022-11-15T11:17:07.730Z,99601.34
2022-11-15T11:19:46.943Z,99603.91
2022-11-15T11:22:21.814Z,99606.44
2022-11-15T11:25:03.298Z,99607.19
2022-11-15T11:27:44.060Z,99607.94
2022-11-15T11:30:17.373Z,99598.69
2022-11-15T11:32:57.871Z,99601.13
2022-11-15T11:35:31.852Z,99591.91
2022-11-15T11:38:16.161Z,99596.13
2022-11-15T11:40:55.929Z,99585.56
2022-11-15T11:43:35.509Z,99590.72
2022-11-15T11:46:18.680Z,99583.28
2022-11-15T11:48:51.207Z,99580.63
2022-11-15T11:51:23.042Z,99573.00
2022-11-15T11:53:56.644Z,99578.00
2022-11-15T11:56:29.570Z,99565.47
2022-11-15T11:59:03.284Z,99563.69
2022-11-15T12:01:36.297Z,99564.44
2022-11-15T12:04:15.776Z,99558.59
2022-11-15T12:06:49.379Z,99552.84
2022-11-15T12:09:21.825Z,99542.81
2022-11-15T12:11:57.813Z,99547.84
2022-11-15T12:14:34.105Z,99543.66
2022-11-15T12:17:02.514Z,99539.53
2022-11-15T12:19:31.204Z,99532.06
2022-11-15T12:22:04.534Z,99525.41
2022-11-15T12:24:39.552Z,99526.25
2022-11-15T12:27:23.279Z,99519.56
2022-11-15T12:29:58.732Z,99518.66
2022-11-15T12:32:30.396Z,99516.88
2022-11-15T12:35:00.222Z,99516.81
2022-11-15T12:37:48.139Z,99511.00
2022-11-15T12:40:25.315Z,99496.09
2022-11-15T12:43:17.084Z,99487.88
2022-11-15T12:45:46.815Z,99486.34
2022-11-15T12:48:50.183Z,99478.00
2022-11-15T12:51:18.931Z,99482.09
2022-11-15T12:53:46.720Z,99464.44
2022-11-15T12:56:23.746Z,99473.03
2022-11-15T12:58:58.576Z,99468.84
2022-11-15T13:02:01.201Z,99471.34
2022-11-15T13:04:32.931Z,99464.69
2022-11-15T13:07:04.011Z,99461.28
2022-11-15T13:09:55.299Z,99457.91
2022-11-15T13:12:58.275Z,99456.28
2022-11-15T13:15:43.038Z,99436.03
2022-11-15T13:18:40.475Z,99437.09
2022-11-15T13:21:39.988Z,99437.13
2022-11-15T13:24:14.000Z,99443.00
2022-11-15T13:26:42.241Z,99434.69
2022-11-15T13:29:21.128Z,99438.91
2022-11-15T13:31:50.695Z,99429.63
2022-11-15T13:37:31.220Z,99440.75
2022-11-15T13:40:17.900Z,99439.16
2022-11-15T13:42:46.065Z,99433.41
2022-11-15T13:45:17.671Z,99427.53
2022-11-15T13:47:52.684Z,99425.88
2022-11-15T13:50:24.155Z,99425.78
2022-11-15T13:52:52.502Z,99424.91
2022-11-15T13:55:22.979Z,99408.19
2022-11-15T13:57:54.114Z,99405.59
2022-11-15T14:00:38.558Z,99404.75
2022-11-15T14:03:23.446Z,99395.56
2022-11-15T14:06:07.400Z,99395.56
2022-11-15T14:08:36.160Z,99393.88
2022-11-15T14:11:15.827Z,99388.75
2022-11-15T14:13:44.046Z,99386.22
2022-11-15T14:16:16.587Z,99369.22
2022-11-15T14:18:49.025Z,99367.53
2022-11-15T14:21:17.606Z,99376.84
2022-11-15T14:23:45.750Z,99381.81
2022-11-15T14:26:29.922Z,99373.41
2022-11-15T14:28:58.083Z,99370.06
2022-11-15T14:31:25.883Z,99351.53
2022-11-15T14:33:55.016Z,99357.50
2022-11-15T14:36:23.313Z,99356.63
2022-11-15T14:38:51.262Z,99352.41
2022-11-15T14:41:21.873Z,99344.88
2022-11-15T14:43:49.781Z,99346.50
2022-11-15T14:46:17.714Z,99338.97
2022-11-15T14:48:45.555Z,99343.09
2022-11-15T14:51:17.352Z,99336.38
2022-11-15T14:53:46.713Z,99331.34
2022-11-15T14:56:15.550Z,99333.00
2022-11-15T14:58:43.764Z,99336.28
2022-11-15T15:01:15.198Z,99327.91
2022-11-15T15:03:45.027Z,99322.88
2022-11-15T15:06:17.905Z,99322.00
2022-11-15T15:08:49.408Z,99325.22
2022-11-15T15:11:22.681Z,99323.53
2022-11-15T15:13:50.732Z,99327.63
2022-11-15T15:16:18.507Z,99320.06
2022-11-15T15:18:46.333Z,99320.88
2022-11-15T15:21:22.403Z,99316.72
2022-11-15T15:23:51.839Z,99310.84
2022-11-15T15:26:19.740Z,99304.94
2022-11-15T15:28:49.492Z,99298.03
2022-11-15T15:31:17.383Z,99303.97
2022-11-15T15:33:45.414Z,99308.25
2022-11-15T15:36:14.025Z,99306.56
2022-11-15T15:38:42.299Z,99308.19
2022-11-15T15:41:13.193Z,99308.25
2022-11-15T15:43:41.644Z,99301.50
2022-11-15T15:46:11.791Z,99315.03
2022-11-15T15:48:40.483Z,99310.84
2022-11-15T15:51:15.413Z,99311.72
2022-11-15T15:53:46.708Z,99301.72
2022-11-15T15:56:15.911Z,99313.38
2022-11-15T15:58:43.780Z,99298.41
2022-11-15T16:01:11.636Z,99307.56
2022-11-15T16:03:39.485Z,99300.09
2022-11-15T16:06:34.936Z,99297.63
2022-11-15T16:09:16.799Z,99290.97
2022-11-15T16:11:47.947Z,99271.81
2022-11-15T16:14:15.777Z,99285.19
2022-11-15T16:16:43.719Z,99290.19
2022-11-15T16:19:13.531Z,99292.69
2022-11-15T16:21:41.333Z,99292.69
2022-11-15T16:24:09.130Z,99292.69
2022-11-15T16:26:38.623Z,99286.03
2022-11-15T16:29:10.111Z,99287.75
2022-11-15T16:31:38.019Z,99280.13
2022-11-15T16:34:05.840Z,99298.63
2022-11-15T16:36:35.827Z,99290.25
2022-11-15T16:39:05.180Z,99290.28
2022-11-15T16:41:33.126Z,99291.09
2022-11-15T16:44:01.017Z,99276.75
2022-11-15T16:46:30.238Z,99291.88
2022-11-15T16:48:58.463Z,99288.50
2022-11-15T16:51:26.513Z,99286.75
2022-11-15T16:53:54.352Z,99289.28
2022-11-15T16:56:25.744Z,99296.03
2022-11-15T16:58:54.790Z,99278.56
2022-11-15T17:01:24.986Z,99286.97
2022-11-15T17:03:54.791Z,99288.66
2022-11-15T17:06:26.295Z,99295.25
2022-11-15T17:08:54.113Z,99284.47
2022-11-15T17:11:23.851Z,99281.97
2022-11-15T17:13:51.805Z,99276.78
2022-11-15T17:16:19.735Z,99281.88
2022-11-15T17:18:52.366Z,99293.56
2022-11-15T17:21:23.297Z,99285.19
2022-11-15T17:23:51.111Z,99281.00
2022-11-15T17:26:39.242Z,99277.69
2022-11-15T17:29:08.687Z,99254.13
2022-11-15T17:31:37.531Z,99273.59
2022-11-15T17:34:07.103Z,99271.78
2022-11-15T17:36:36.627Z,99266.78
2022-11-15T17:39:05.189Z,99276.03
2022-11-15T17:41:33.052Z,99266.75
2022-11-15T17:44:03.297Z,99271.78
2022-11-15T17:46:32.139Z,99280.19
2022-11-15T17:49:00.524Z,99250.03
2022-11-15T17:51:28.396Z,99268.59
2022-11-15T17:53:57.576Z,99270.19
2022-11-15T17:56:27.378Z,99270.19
2022-11-15T17:58:56.821Z,99261.06
2022-11-15T18:01:26.802Z,99259.38
2022-11-15T18:03:55.431Z,99257.63
2022-11-15T18:06:25.920Z,99259.34
2022-11-15T18:08:55.981Z,99256.03
2022-11-15T18:11:27.325Z,99250.19
2022-11-15T18:13:58.256Z,99251.91
2022-11-15T18:16:27.944Z,99245.31
2022-11-15T18:18:56.099Z,99247.00
2022-11-15T18:21:25.801Z,99248.69
2022-11-15T18:23:56.714Z,99241.97
2022-11-15T18:26:27.879Z,99246.91
2022-11-15T18:28:57.493Z,99241.84
2022-11-15T18:31:27.122Z,99231.81
2022-11-15T18:33:55.632Z,99213.22
2022-11-15T18:36:25.046Z,99243.50
2022-11-15T18:38:55.357Z,99225.91
2022-11-15T18:41:25.390Z,99243.53
2022-11-15T18:43:55.176Z,99241.03
2022-11-15T18:46:25.228Z,99234.38
2022-11-15T18:48:54.481Z,99237.69
2022-11-15T18:51:23.800Z,99229.44
2022-11-15T18:53:54.422Z,99223.63
2022-11-15T18:56:23.867Z,99227.78
2022-11-15T18:58:55.086Z,99224.44
2022-11-15T19:01:24.922Z,99220.25
2022-11-15T19:03:54.749Z,99221.94
2022-11-15T19:06:24.058Z,99213.63
2022-11-15T19:08:54.562Z,99211.97
2022-11-15T19:11:24.158Z,99205.34
2022-11-15T19:13:56.364Z,99198.66
2022-11-15T19:16:25.275Z,99197.03
2022-11-15T19:18:55.587Z,99184.50
2022-11-15T19:21:24.567Z,99177.00
2022-11-15T19:23:54.136Z,99175.38
2022-11-15T19:26:23.694Z,99173.78
2022-11-15T19:28:53.161Z,99172.97
2022-11-15T19:31:23.559Z,99173.84
2022-11-15T19:33:52.634Z,99166.09
2022-11-15T19:36:21.849Z,99177.16
2022-11-15T19:38:49.914Z,99171.31
2022-11-15T19:41:19.316Z,99176.34
2022-11-15T19:43:48.583Z,99177.19
2022-11-15T19:46:16.707Z,99166.22
2022-11-15T19:48:45.851Z,99178.03
2022-11-15T19:51:15.504Z,99177.16
2022-11-15T19:53:43.724Z,99167.16
2022-11-15T19:56:12.989Z,99171.31
2022-11-15T19:58:41.388Z,99183.84
2022-11-15T20:01:13.998Z,99181.41
2022-11-15T20:03:41.840Z,99180.59
2022-11-15T20:06:12.880Z,99172.31
2022-11-15T20:08:40.713Z,99178.16
2022-11-15T20:11:08.983Z,99181.47
2022-11-15T20:13:36.932Z,99178.09
2022-11-15T20:16:04.968Z,99177.16
2022-11-15T20:18:33.035Z,99182.19
2022-11-15T20:21:01.669Z,99174.63
2022-11-15T20:23:31.646Z,99177.16
2022-11-15T20:25:59.541Z,99178.78
2022-11-15T20:28:29.046Z,99160.22
2022-11-15T20:30:58.829Z,99143.34
2022-11-15T20:33:27.521Z,99160.22
2022-11-15T20:35:55.357Z,99165.22
2022-11-15T20:38:23.647Z,99167.63
2022-11-15T20:40:57.554Z,99151.69
2022-11-15T20:43:28.259Z,99159.31
2022-11-15T20:45:56.046Z,99160.22
2022-11-15T20:48:23.942Z,99154.31
2022-11-15T20:50:51.766Z,99151.84
2022-11-15T20:53:21.269Z,99147.69
2022-11-15T20:55:52.402Z,99147.63
2022-11-15T20:58:20.199Z,99147.66
2022-11-15T21:00:48.557Z,99149.28
2022-11-15T21:03:16.485Z,99141.72
2022-11-15T21:05:45.544Z,99139.19
2022-11-15T21:08:14.170Z,99137.56
2022-11-15T21:10:59.779Z,99129.97
2022-11-15T21:13:29.352Z,99144.94
2022-11-15T21:15:57.858Z,99137.34
2022-11-15T21:18:25.797Z,99129.72
2022-11-15T21:20:53.834Z,99112.09
2022-11-15T21:23:21.937Z,99125.53
2022-11-15T21:25:50.691Z,99120.50
2022-11-15T21:28:18.647Z,99106.31
2022-11-15T21:30:55.807Z,99109.66
2022-11-15T21:33:27.202Z,99106.28
2022-11-15T21:35:55.474Z,99104.69
2022-11-15T21:38:24.504Z,99105.56
2022-11-15T21:40:53.083Z,99104.75
2022-11-15T21:43:21.766Z,99099.72
2022-11-15T21:45:59.115Z,99093.06
2022-11-15T21:48:27.116Z,99091.41
2022-11-15T21:50:58.891Z,99101.44
2022-11-15T21:53:27.703Z,99093.16
2022-11-15T21:55:55.786Z,99094.06
2022-11-15T21:58:24.510Z,99086.59
2022-11-15T22:01:10.027Z,99089.06
2022-11-15T22:03:39.231Z,99087.34
2022-11-15T22:06:07.395Z,99080.66
2022-11-15T22:08:35.808Z,99082.31
2022-11-15T22:11:04.463Z,99083.03
2022-11-15T22:13:32.467Z,99075.34
2022-11-15T22:16:00.441Z,99078.69
2022-11-15T22:18:28.855Z,99079.53
2022-11-15T22:20:59.532Z,99074.53
2022-11-15T22:23:29.526Z,99067.78
2022-11-15T22:25:57.943Z,99076.16
2022-11-15T22:28:26.132Z,99064.50
2022-11-15T22:30:55.549Z,99063.66
2022-11-15T22:33:25.265Z,99059.50
2022-11-15T22:35:53.987Z,99055.09
2022-11-15T22:38:24.179Z,99054.28
2022-11-15T22:40:52.114Z,99050.91
2022-11-15T22:43:21.823Z,99053.31
2022-11-15T22:45:54.254Z,99045.88
2022-11-15T22:48:23.674Z,99050.09
2022-11-15T22:50:51.816Z,99046.06
2022-11-15T22:53:20.423Z,99045.38
2022-11-15T22:55:52.712Z,99034.63
2022-11-15T22:58:21.183Z,99034.63
2022-11-15T23:00:50.710Z,99036.31
2022-11-15T23:03:19.784Z,99038.03
2022-11-15T23:05:47.914Z,99042.22
2022-11-15T23:08:15.945Z,99028.84
2022-11-15T23:11:01.839Z,99031.34
2022-11-15T23:13:33.348Z,99022.94
2022-11-15T23:16:21.000Z,99037.16
2022-11-15T23:18:50.008Z,99034.59
2022-11-15T23:21:41.399Z,99034.56
2022-11-15T23:24:10.437Z,99039.47
2022-11-15T23:26:39.231Z,99030.38
2022-11-15T23:29:10.882Z,99028.75
2022-11-15T23:32:01.457Z,99024.63
2022-11-15T23:34:30.545Z,99008.81
2022-11-15T23:36:59.079Z,99003.03
2022-11-15T23:39:27.011Z,99008.03
2022-11-15T23:41:55.023Z,99001.41
2022-11-15T23:44:24.832Z,98988.03
2022-11-15T23:46:53.004Z,98991.56
2022-11-15T23:49:21.338Z,98978.22
2022-11-15T23:51:49.464Z,98971.56
2022-11-15T23:54:17.357Z,98968.31
2022-11-15T23:56:45.315Z,98958.25
2022-11-15T23:59:13.257Z,98950.03
